Time;durP1;ratioP1;P1;durP2;ratioP2;P2;SDS_P1;SDS_P2;PMS_P1;PMS_P2;Temp;Humidity;BMP_temperature;BMP_pressure;BME280_temperature;BME280_humidity;BME280_pressure;Samples;Min_cycle;Max_cycle;Signal;HPM_P1;HPM_P2
2023/01/29 00:01:05;;;;;;;;;;;5.70;99.90;;;;;;5061904;28;19920;-77
2023/01/29 00:03:31;;;;;;;;;;;5.80;99.90;;;;;;5031630;28;20265;-77
2023/01/29 00:05:56;;;;;;;;;;;6.30;99.90;;;;;;5038935;28;19936;-77
2023/01/29 00:08:22;;;;;;;;;;;6.30;99.90;;;;;;5064070;28;19929;-78
2023/01/29 00:10:47;;;;;;;;;;;7.20;99.90;;;;;;5063615;28;19920;-79
2023/01/29 00:13:13;;;;;;;;;;;4.20;99.90;;;;;;5038989;28;19928;-78
2023/01/29 00:15:38;;;;;;;;;;;4.60;99.90;;;;;;5039392;28;19934;-78
2023/01/29 00:18:04;;;;;;;;;;;5.90;99.90;;;;;;5060720;28;19967;-79
2023/01/29 00:20:30;;;;;;;;;;;4.50;99.90;;;;;;5062281;28;19920;-79
2023/01/29 00:22:55;;;;;;;;;;;4.40;99.90;;;;;;5064461;28;20276;-79
2023/01/29 00:25:21;;;;;;;;;;;5.10;99.90;;;;;;5062817;28;20375;-79
2023/01/29 00:27:46;;;;;;;;;;;6.70;99.90;;;;;;5060584;28;20023;-79
2023/01/29 00:30:12;;;;;;;;;;;6.10;99.90;;;;;;5062461;28;19923;-79
2023/01/29 00:32:38;;;;;;;;;;;4.50;99.90;;;;;;5063855;28;19927;-79
2023/01/29 00:35:04;;;;;;;;;;;4.10;99.90;;;;;;5060483;28;19927;-77
2023/01/29 00:37:30;;;;;;;;;;;4.50;99.90;;;;;;5059784;28;20307;-78
2023/01/29 00:39:55;;;;;;;;;;;5.90;99.90;;;;;;5039202;28;20027;-78
2023/01/29 00:45:05;;;;;;;;;;;5.80;99.90;;;;;;5051717;28;20326;-78
2023/01/29 00:47:34;;;;;;;;;;;4.50;99.90;;;;;;5041864;28;19925;-77
2023/01/29 00:50:00;;;;;;;;;;;4.30;99.90;;;;;;5042329;28;20338;-78
2023/01/29 00:52:26;;;;;;;;;;;5.60;99.90;;;;;;5023238;28;19921;-77
2023/01/29 00:54:52;;;;;;;;;;;4.40;99.90;;;;;;5024598;28;19966;-77
2023/01/29 00:57:18;;;;;;;;;;;5.70;99.90;;;;;;5024941;28;19930;-77
2023/01/29 00:59:43;;;;;;;;;;;4.30;99.90;;;;;;5025507;28;19936;-77
2023/01/29 01:04:53;;;;;;;;;;;4.50;99.90;;;;;;5046765;28;20007;-77
2023/01/29 01:07:22;;;;;;;;;;;5.20;99.90;;;;;;5029658;28;20432;-77
2023/01/29 01:12:31;;;;;;;;;;;4.50;99.90;;;;;;5025006;28;20436;-78
2023/01/29 01:14:57;;;;;;;;;;;4.30;99.90;;;;;;5044834;28;20020;-78
2023/01/29 01:17:22;;;;;;;;;;;6.20;99.90;;;;;;5043834;28;20364;-78
2023/01/29 01:19:48;;;;;;;;;;;4.20;99.90;;;;;;5044499;28;19925;-78
2023/01/29 01:22:13;;;;;;;;;;;4.60;99.90;;;;;;5025024;28;20080;-77
2023/01/29 01:24:39;;;;;;;;;;;5.70;99.90;;;;;;5044614;28;20284;-77
2023/01/29 01:27:05;;;;;;;;;;;5.80;99.90;;;;;;5043438;28;19920;-77
2023/01/29 01:29:31;;;;;;;;;;;4.70;99.90;;;;;;5042020;28;20808;-77
2023/01/29 01:31:56;;;;;;;;;;;4.60;99.90;;;;;;5023847;28;19923;-78
2023/01/29 01:34:22;;;;;;;;;;;4.60;99.90;;;;;;5041137;28;19925;-78
2023/01/29 01:36:48;;;;;;;;;;;5.30;99.90;;;;;;5021594;28;20391;-78
2023/01/29 01:39:13;;;;;;;;;;;7.00;99.90;;;;;;5040387;28;20395;-77
2023/01/29 01:41:39;;;;;;;;;;;5.00;99.90;;;;;;5042795;28;20380;-77
2023/01/29 01:44:05;;;;;;;;;;;5.00;99.90;;;;;;5022959;28;20015;-76
2023/01/29 01:46:33;;;;;;;;;;;4.70;99.90;;;;;;5054801;28;20007;-77
2023/01/29 01:49:02;;;;;;;;;;;4.70;99.90;;;;;;5061307;28;20403;-77
2023/01/29 01:51:31;;;;;;;;;;;6.50;99.90;;;;;;5043339;28;20003;-77
2023/01/29 01:54:00;;;;;;;;;;;5.00;99.90;;;;;;5060949;28;19928;-77
2023/01/29 01:56:37;;;;;;;;;;;4.70;99.90;;;;;;5061917;28;19931;-77
2023/01/29 01:59:04;;;;;;;;;;;4.80;99.90;;;;;;5036898;28;19920;-77
2023/01/29 02:01:30;;;;;;;;;;;6.80;99.90;;;;;;5037842;28;19920;-77
2023/01/29 02:09:34;;;;;;;;;;;5.10;99.90;;;;;;5059894;28;19920;-78
2023/01/29 02:12:27;;;;;;;;;;;4.70;99.90;;;;;;5057751;28;19967;-78
2023/01/29 02:14:53;;;;;;;;;;;4.70;99.90;;;;;;5054640;28;20484;-78
2023/01/29 02:17:18;;;;;;;;;;;5.40;99.90;;;;;;5043550;28;19924;-78
2023/01/29 02:19:44;;;;;;;;;;;5.50;99.90;;;;;;5059367;28;19921;-78
2023/01/29 02:22:19;;;;;;;;;;;4.50;99.90;;;;;;5063275;28;19928;-78
2023/01/29 02:24:45;;;;;;;;;;;4.70;99.90;;;;;;5056860;28;19920;-78
2023/01/29 02:27:14;;;;;;;;;;;6.60;99.90;;;;;;5056451;28;20376;-79
2023/01/29 02:29:51;;;;;;;;;;;4.70;99.90;;;;;;5026795;28;20395;-78
2023/01/29 02:32:19;;;;;;;;;;;4.70;99.90;;;;;;5057493;28;19921;-78
2023/01/29 02:38:09;;;;;;;;;;;4.70;99.90;;;;;;5031282;28;20010;-78
2023/01/29 02:40:39;;;;;;;;;;;6.00;99.90;;;;;;5063161;28;20020;-78
2023/01/29 02:43:24;;;;;;;;;;;4.70;99.90;;;;;;5042493;28;19960;-78
2023/01/29 02:46:25;;;;;;;;;;;4.70;99.90;;;;;;5042595;28;19921;-78
2023/01/29 02:48:54;;;;;;;;;;;4.40;99.90;;;;;;4982988;28;20378;-78
2023/01/29 02:51:25;;;;;;;;;;;5.60;99.90;;;;;;5021479;28;19926;-78
2023/01/29 02:54:14;;;;;;;;;;;4.70;99.90;;;;;;5041035;28;19927;-78
2023/01/29 02:56:47;;;;;;;;;;;4.70;99.90;;;;;;5032621;28;19920;-78
2023/01/29 02:59:33;;;;;;;;;;;5.90;99.90;;;;;;5063205;28;19921;-78
2023/01/29 03:02:04;;;;;;;;;;;4.70;99.90;;;;;;5038451;28;20418;-78
2023/01/29 03:04:30;;;;;;;;;;;4.70;99.90;;;;;;5045596;28;20438;-78
2023/01/29 03:06:58;;;;;;;;;;;6.40;99.90;;;;;;5040733;28;19921;-78
2023/01/29 03:09:36;;;;;;;;;;;4.60;99.90;;;;;;5063968;28;20362;-78
2023/01/29 03:12:32;;;;;;;;;;;4.60;99.90;;;;;;5057899;28;19924;-78
2023/01/29 03:15:15;;;;;;;;;;;5.90;99.90;;;;;;5064261;28;19974;-78
2023/01/29 03:17:45;;;;;;;;;;;5.90;99.90;;;;;;5060969;28;19920;-78
2023/01/29 03:20:14;;;;;;;;;;;6.70;99.90;;;;;;5047470;28;20402;-78
2023/01/29 03:22:42;;;;;;;;;;;4.40;99.90;;;;;;5039997;28;19925;-79
2023/01/29 03:34:03;;;;;;;;;;;4.70;99.90;;;;;;5061139;28;19921;-79
2023/01/29 03:36:36;;;;;;;;;;;4.60;99.90;;;;;;5017316;28;19921;-78
2023/01/29 03:39:06;;;;;;;;;;;6.00;99.90;;;;;;5029266;28;19925;-78
2023/01/29 03:41:33;;;;;;;;;;;4.60;99.90;;;;;;5066131;28;19925;-78
2023/01/29 03:44:17;;;;;;;;;;;4.60;99.90;;;;;;5061073;28;19921;-78
2023/01/29 03:46:58;;;;;;;;;;;4.60;99.90;;;;;;5060822;28;19921;-78
2023/01/29 03:50:02;;;;;;;;;;;4.60;99.90;;;;;;5062901;28;19944;-78
2023/01/29 03:52:39;;;;;;;;;;;4.60;99.90;;;;;;4968873;28;19922;-78
2023/01/29 03:55:09;;;;;;;;;;;4.60;99.90;;;;;;4956165;28;20436;-78
2023/01/29 03:57:53;;;;;;;;;;;4.60;99.90;;;;;;5022482;28;19928;-79
2023/01/29 04:00:22;;;;;;;;;;;4.50;99.90;;;;;;5062794;28;19920;-78
2023/01/29 04:02:52;;;;;;;;;;;6.30;99.90;;;;;;5065018;28;19928;-79
2023/01/29 04:05:22;;;;;;;;;;;6.30;99.90;;;;;;5044026;28;20376;-78
2023/01/29 04:07:50;;;;;;;;;;;5.50;99.90;;;;;;5064363;28;19920;-79
2023/01/29 04:10:18;;;;;;;;;;;4.30;99.90;;;;;;5030450;28;19974;-77
2023/01/29 04:12:50;;;;;;;;;;;4.60;99.90;;;;;;5061465;28;20428;-77
2023/01/29 04:15:16;;;;;;;;;;;4.80;99.90;;;;;;5039326;28;19928;-77
2023/01/29 04:17:44;;;;;;;;;;;4.60;99.90;;;;;;5063884;28;19943;-77
2023/01/29 04:20:10;;;;;;;;;;;4.40;99.90;;;;;;5061855;28;19921;-77
2023/01/29 04:22:37;;;;;;;;;;;4.50;99.90;;;;;;5060262;28;19932;-78
2023/01/29 04:25:14;;;;;;;;;;;6.20;99.90;;;;;;5044789;28;20295;-77
2023/01/29 04:27:55;;;;;;;;;;;4.60;99.90;;;;;;5063861;28;20382;-78
2023/01/29 04:30:30;;;;;;;;;;;4.60;99.90;;;;;;5028290;28;19925;-78
2023/01/29 04:33:10;;;;;;;;;;;4.50;99.90;;;;;;5035177;28;19920;-78
2023/01/29 04:35:58;;;;;;;;;;;4.50;99.90;;;;;;5060445;28;19920;-78
2023/01/29 04:38:40;;;;;;;;;;;4.50;99.90;;;;;;5032392;28;19921;-78
2023/01/29 04:41:15;;;;;;;;;;;4.50;99.90;;;;;;5044009;28;20007;-77
2023/01/29 04:43:53;;;;;;;;;;;4.60;99.90;;;;;;5064233;28;19987;-77
2023/01/29 04:46:30;;;;;;;;;;;4.50;99.90;;;;;;5026932;28;20265;-77
2023/01/29 04:49:18;;;;;;;;;;;4.60;99.90;;;;;;5057727;28;19929;-77
2023/01/29 04:51:59;;;;;;;;;;;4.60;99.90;;;;;;5039854;28;19921;-78
2023/01/29 04:54:24;;;;;;;;;;;4.60;99.90;;;;;;5028255;28;19965;-78
2023/01/29 04:56:53;;;;;;;;;;;6.30;99.90;;;;;;5061104;28;19920;-77
2023/01/29 05:00:03;;;;;;;;;;;6.80;99.90;;;;;;5064309;28;19927;-77
2023/01/29 05:02:30;;;;;;;;;;;4.80;99.90;;;;;;5013980;28;19967;-77
2023/01/29 05:04:57;;;;;;;;;;;6.50;99.90;;;;;;5061177;28;19920;-77
2023/01/29 05:07:23;;;;;;;;;;;4.80;99.90;;;;;;5060854;28;19925;-77
2023/01/29 05:09:49;;;;;;;;;;;4.80;99.90;;;;;;5046289;28;19921;-77
2023/01/29 05:12:16;;;;;;;;;;;4.80;99.90;;;;;;5060617;28;19928;-77
2023/01/29 05:14:42;;;;;;;;;;;5.40;99.90;;;;;;5059100;28;19966;-77
2023/01/29 05:17:11;;;;;;;;;;;5.60;99.90;;;;;;5063584;28;19927;-78
2023/01/29 05:19:37;;;;;;;;;;;6.80;99.90;;;;;;5043425;28;19928;-77
2023/01/29 05:22:06;;;;;;;;;;;6.20;99.90;;;;;;5062290;28;19921;-78
2023/01/29 05:24:32;;;;;;;;;;;4.50;99.90;;;;;;5061631;28;19928;-78
2023/01/29 05:29:45;;;;;;;;;;;4.80;99.90;;;;;;5059379;28;19920;-77
2023/01/29 05:32:10;;;;;;;;;;;4.40;99.90;;;;;;5056157;28;20357;-78
2023/01/29 05:34:36;;;;;;;;;;;4.80;99.90;;;;;;5063654;28;19928;-77
2023/01/29 05:37:01;;;;;;;;;;;4.80;99.90;;;;;;5059948;28;20354;-77
2023/01/29 05:39:27;;;;;;;;;;;6.80;99.90;;;;;;5038443;28;19942;-77
2023/01/29 05:41:52;;;;;;;;;;;5.90;99.90;;;;;;5061431;28;20736;-77
2023/01/29 05:44:19;;;;;;;;;;;4.60;99.90;;;;;;5031109;28;19921;-77
2023/01/29 05:46:45;;;;;;;;;;;6.20;99.90;;;;;;5062962;28;19943;-77
2023/01/29 05:49:10;;;;;;;;;;;6.10;99.90;;;;;;5060307;28;20376;-77
2023/01/29 05:51:36;;;;;;;;;;;6.90;99.90;;;;;;5062629;28;20394;-77
2023/01/29 05:54:01;;;;;;;;;;;4.70;99.90;;;;;;5036884;28;19930;-76
2023/01/29 05:56:27;;;;;;;;;;;4.80;99.90;;;;;;5062371;28;19920;-77
2023/01/29 05:58:52;;;;;;;;;;;5.80;99.90;;;;;;5061118;28;20294;-77
2023/01/29 06:01:20;;;;;;;;;;;4.60;99.90;;;;;;5038087;28;20391;-78
2023/01/29 06:03:46;;;;;;;;;;;5.90;99.90;;;;;;5043684;28;19953;-78
2023/01/29 06:06:12;;;;;;;;;;;6.60;99.90;;;;;;5037749;28;20365;-78
2023/01/29 06:08:38;;;;;;;;;;;4.40;99.90;;;;;;5034183;28;20001;-78
2023/01/29 06:11:06;;;;;;;;;;;6.50;99.90;;;;;;5034323;28;20352;-78
2023/01/29 06:13:31;;;;;;;;;;;4.50;99.90;;;;;;5032309;28;19921;-78
2023/01/29 06:15:57;;;;;;;;;;;4.50;99.90;;;;;;5031272;28;19924;-77
2023/01/29 06:18:22;;;;;;;;;;;4.20;99.90;;;;;;5062036;28;19945;-79
2023/01/29 06:20:48;;;;;;;;;;;6.20;99.90;;;;;;5065470;28;20292;-78
2023/01/29 06:23:13;;;;;;;;;;;6.30;99.90;;;;;;5065300;28;20352;-78
2023/01/29 06:25:39;;;;;;;;;;;6.10;99.90;;;;;;5040605;28;19921;-78
2023/01/29 06:28:04;;;;;;;;;;;6.10;99.90;;;;;;5041812;28;19920;-78
2023/01/29 06:30:30;;;;;;;;;;;4.70;99.90;;;;;;5041339;28;19920;-78
2023/01/29 06:32:57;;;;;;;;;;;5.10;99.90;;;;;;5063089;28;19927;-78
2023/01/29 06:35:24;;;;;;;;;;;5.60;99.90;;;;;;5041714;28;20731;-78
2023/01/29 06:37:49;;;;;;;;;;;5.70;99.90;;;;;;5035983;28;20006;-78
2023/01/29 06:40:15;;;;;;;;;;;4.30;99.90;;;;;;5064412;28;20049;-78
2023/01/29 06:42:40;;;;;;;;;;;4.20;99.90;;;;;;5041422;28;20014;-78
2023/01/29 06:45:06;;;;;;;;;;;6.00;99.90;;;;;;5063946;28;19921;-77
2023/01/29 06:47:32;;;;;;;;;;;4.30;99.90;;;;;;5048165;28;19932;-78
2023/01/29 06:49:57;;;;;;;;;;;4.30;99.90;;;;;;5040887;28;19928;-78
2023/01/29 06:52:27;;;;;;;;;;;4.90;99.90;;;;;;5037897;28;19920;-78
2023/01/29 06:54:53;;;;;;;;;;;6.10;99.90;;;;;;5040992;28;19960;-77
2023/01/29 06:57:18;;;;;;;;;;;6.00;99.90;;;;;;5046694;28;20340;-77
2023/01/29 06:59:44;;;;;;;;;;;4.30;99.90;;;;;;5046217;28;19960;-78
2023/01/29 07:02:10;;;;;;;;;;;4.30;99.90;;;;;;5063694;28;19920;-78
2023/01/29 07:04:36;;;;;;;;;;;4.30;99.90;;;;;;5047191;28;19929;-78
2023/01/29 07:07:02;;;;;;;;;;;6.40;99.90;;;;;;5062646;28;19932;-78
2023/01/29 07:09:27;;;;;;;;;;;5.00;99.90;;;;;;5066459;28;19921;-78
2023/01/29 07:11:53;;;;;;;;;;;4.30;99.90;;;;;;5040063;28;19963;-77
2023/01/29 07:14:18;;;;;;;;;;;4.30;99.90;;;;;;5062476;28;19927;-78
2023/01/29 07:16:47;;;;;;;;;;;6.00;99.90;;;;;;5041933;28;19968;-78
2023/01/29 07:19:12;;;;;;;;;;;5.40;99.90;;;;;;5063629;28;19924;-78
2023/01/29 07:21:38;;;;;;;;;;;4.30;99.90;;;;;;5064006;28;20346;-78
2023/01/29 07:24:04;;;;;;;;;;;4.30;99.90;;;;;;5030884;28;20361;-78
2023/01/29 07:26:29;;;;;;;;;;;4.30;99.90;;;;;;5028394;28;19928;-77
2023/01/29 07:28:55;;;;;;;;;;;6.10;99.90;;;;;;5062493;28;19920;-78
2023/01/29 07:31:21;;;;;;;;;;;5.90;99.90;;;;;;5048205;28;19990;-77
2023/01/29 07:33:50;;;;;;;;;;;5.70;99.90;;;;;;5032133;28;19920;-78
2023/01/29 07:36:15;;;;;;;;;;;4.20;99.90;;;;;;5043382;28;19921;-78
2023/01/29 07:38:41;;;;;;;;;;;6.10;99.90;;;;;;5063931;28;19959;-78
2023/01/29 07:41:07;;;;;;;;;;;5.40;99.90;;;;;;5040226;28;20338;-78
2023/01/29 07:43:33;;;;;;;;;;;6.00;99.90;;;;;;5063233;28;19943;-78
2023/01/29 07:46:03;;;;;;;;;;;4.30;99.90;;;;;;5064060;28;19925;-78
2023/01/29 07:48:28;;;;;;;;;;;4.30;99.90;;;;;;5040060;28;19920;-78
2023/01/29 07:50:54;;;;;;;;;;;6.00;99.90;;;;;;5039452;28;19920;-78
2023/01/29 07:53:20;;;;;;;;;;;7.10;99.90;;;;;;5039853;28;19931;-78
2023/01/29 07:55:45;;;;;;;;;;;5.00;99.90;;;;;;5059193;28;19953;-77
2023/01/29 07:58:14;;;;;;;;;;;4.20;99.90;;;;;;5059612;28;19928;-78
2023/01/29 08:00:39;;;;;;;;;;;5.30;99.90;;;;;;5039116;28;19921;-77
2023/01/29 08:03:06;;;;;;;;;;;6.30;99.90;;;;;;5062535;28;19966;-77
2023/01/29 08:05:32;;;;;;;;;;;5.60;99.90;;;;;;5039397;28;20360;-75
2023/01/29 08:07:58;;;;;;;;;;;4.50;99.90;;;;;;5062713;28;19916;-75
2023/01/29 08:10:23;;;;;;;;;;;7.10;99.90;;;;;;5039701;28;20761;-75
2023/01/29 08:12:56;;;;;;;;;;;6.00;99.90;;;;;;5046309;28;20015;-76
2023/01/29 08:15:22;;;;;;;;;;;4.60;99.90;;;;;;5062585;28;20119;-75
2023/01/29 08:17:48;;;;;;;;;;;4.50;99.90;;;;;;5038571;28;19920;-75
2023/01/29 08:20:14;;;;;;;;;;;6.70;99.90;;;;;;5026084;28;19927;-75
2023/01/29 08:22:39;;;;;;;;;;;4.60;99.90;;;;;;5046346;28;19921;-75
2023/01/29 08:25:05;;;;;;;;;;;4.50;99.90;;;;;;5042477;28;19960;-73
2023/01/29 08:27:30;;;;;;;;;;;4.60;99.90;;;;;;5063192;28;20321;-74
2023/01/29 08:29:56;;;;;;;;;;;5.40;99.90;;;;;;5027954;28;20670;-75
2023/01/29 08:32:21;;;;;;;;;;;5.40;99.90;;;;;;5032630;28;19925;-74
2023/01/29 08:34:47;;;;;;;;;;;4.70;99.90;;;;;;5045738;28;19969;-74
2023/01/29 08:37:13;;;;;;;;;;;5.10;99.90;;;;;;5038402;28;19926;-74
2023/01/29 08:39:38;;;;;;;;;;;4.60;99.90;;;;;;5060262;28;19922;-74
2023/01/29 08:42:04;;;;;;;;;;;6.10;99.90;;;;;;5029977;28;19926;-74
2023/01/29 08:44:29;;;;;;;;;;;4.50;99.90;;;;;;5035995;28;20019;-74
2023/01/29 08:46:55;;;;;;;;;;;4.50;99.90;;;;;;5060343;28;19920;-75
2023/01/29 08:49:20;;;;;;;;;;;4.60;99.90;;;;;;5062097;28;20649;-75
2023/01/29 08:51:46;;;;;;;;;;;5.50;99.90;;;;;;5045081;28;20276;-74
2023/01/29 08:54:11;;;;;;;;;;;4.50;99.90;;;;;;5058256;28;20323;-75
2023/01/29 08:56:37;;;;;;;;;;;4.50;99.90;;;;;;5064105;28;19920;-75
2023/01/29 08:59:02;;;;;;;;;;;6.90;99.90;;;;;;5025568;28;19920;-74
2023/01/29 09:01:28;;;;;;;;;;;5.50;99.90;;;;;;5060230;28;19928;-75
2023/01/29 09:03:54;;;;;;;;;;;4.30;99.90;;;;;;5062369;28;19920;-75
2023/01/29 09:06:19;;;;;;;;;;;5.10;99.90;;;;;;5062506;28;19939;-76
2023/01/29 09:08:45;;;;;;;;;;;5.70;99.90;;;;;;5061376;28;19935;-76
2023/01/29 09:11:10;;;;;;;;;;;4.70;99.90;;;;;;5045558;28;19954;-75
2023/01/29 09:13:36;;;;;;;;;;;6.80;99.90;;;;;;5038006;28;19962;-75
2023/01/29 09:16:02;;;;;;;;;;;6.60;99.90;;;;;;5037361;28;19995;-78
2023/01/29 09:18:28;;;;;;;;;;;6.00;99.90;;;;;;5060001;28;19921;-78
2023/01/29 09:20:54;;;;;;;;;;;5.40;99.90;;;;;;5062312;28;19921;-76
2023/01/29 09:23:20;;;;;;;;;;;6.80;99.90;;;;;;5061634;28;19920;-77
2023/01/29 09:25:45;;;;;;;;;;;6.70;99.90;;;;;;5038690;28;19974;-77
2023/01/29 09:28:11;;;;;;;;;;;6.60;99.90;;;;;;5056070;28;20406;-78
2023/01/29 09:30:37;;;;;;;;;;;4.70;99.90;;;;;;5044770;28;20263;-79
2023/01/29 09:33:03;;;;;;;;;;;5.00;99.90;;;;;;5034733;28;20391;-74
2023/01/29 09:35:28;;;;;;;;;;;6.20;99.90;;;;;;5036053;28;20264;-79
2023/01/29 09:37:54;;;;;;;;;;;6.40;99.90;;;;;;5026977;28;19984;-77
2023/01/29 09:40:24;;;;;;;;;;;6.70;99.90;;;;;;5060269;28;19928;-76
2023/01/29 09:42:53;;;;;;;;;;;5.70;99.90;;;;;;5037274;28;19920;-77
2023/01/29 09:45:28;;;;;;;;;;;6.90;99.90;;;;;;5034273;28;19928;-78
2023/01/29 09:48:01;;;;;;;;;;;4.90;99.90;;;;;;5057129;28;19920;-77
2023/01/29 09:50:29;;;;;;;;;;;4.90;99.90;;;;;;5025858;28;19921;-78
2023/01/29 09:53:00;;;;;;;;;;;4.90;99.90;;;;;;5055543;28;20323;-78
2023/01/29 09:55:25;;;;;;;;;;;5.00;99.90;;;;;;5063789;28;19978;-74
2023/01/29 09:57:53;;;;;;;;;;;6.50;99.90;;;;;;5041441;28;19924;-78
2023/01/29 10:00:28;;;;;;;;;;;5.30;99.90;;;;;;5030678;28;19978;-84
2023/01/29 10:03:15;;;;;;;;;;;4.90;99.90;;;;;;5055205;28;19921;-76
2023/01/29 10:05:59;;;;;;;;;;;5.00;99.90;;;;;;5060171;28;20374;-73
2023/01/29 10:08:30;;;;;;;;;;;4.90;99.90;;;;;;5056428;28;19928;-77
2023/01/29 10:11:02;;;;;;;;;;;5.00;99.90;;;;;;5052687;28;19943;-77
2023/01/29 10:13:46;;;;;;;;;;;4.90;99.90;;;;;;5063010;28;20299;-76
2023/01/29 10:16:18;;;;;;;;;;;5.00;99.90;;;;;;5033463;28;19929;-74
2023/01/29 10:19:03;;;;;;;;;;;5.00;99.90;;;;;;5061041;28;20011;-80
2023/01/29 10:21:43;;;;;;;;;;;5.00;99.90;;;;;;5029851;28;20381;-77
2023/01/29 10:24:11;;;;;;;;;;;5.00;99.90;;;;;;5057516;28;19920;-79
2023/01/29 10:26:40;;;;;;;;;;;5.10;99.90;;;;;;5060210;28;19983;-78
2023/01/29 10:29:06;;;;;;;;;;;5.20;99.90;;;;;;5043187;28;19978;-84
2023/01/29 10:31:37;;;;;;;;;;;6.60;99.90;;;;;;5035982;28;19924;-76
2023/01/29 10:34:05;;;;;;;;;;;6.40;99.90;;;;;;5022901;28;20015;-82
2023/01/29 10:36:31;;;;;;;;;;;5.30;99.90;;;;;;5054168;28;19938;-81
2023/01/29 10:38:56;;;;;;;;;;;5.10;99.90;;;;;;5026663;28;19920;-82
2023/01/29 10:41:28;;;;;;;;;;;5.70;99.90;;;;;;5062375;28;19920;-80
2023/01/29 10:43:53;;;;;;;;;;;5.30;99.90;;;;;;5057373;28;19921;-78
2023/01/29 10:46:28;;;;;;;;;;;6.90;99.90;;;;;;5023430;28;19921;-75
2023/01/29 10:48:57;;;;;;;;;;;5.40;99.90;;;;;;5058265;28;19925;-78
2023/01/29 10:51:37;;;;;;;;;;;5.40;99.90;;;;;;5045867;28;20330;-75
2023/01/29 10:54:22;;;;;;;;;;;5.40;99.90;;;;;;5032911;28;20463;-79
2023/01/29 10:57:07;;;;;;;;;;;5.40;99.90;;;;;;5025261;28;19928;-81
2023/01/29 10:59:52;;;;;;;;;;;5.90;99.90;;;;;;5060060;28;19928;-80
2023/01/29 11:02:20;;;;;;;;;;;5.50;99.90;;;;;;5029155;28;19956;-78
2023/01/29 11:04:45;;;;;;;;;;;7.60;99.90;;;;;;5058572;28;21463;-75
2023/01/29 11:07:12;;;;;;;;;;;6.30;99.90;;;;;;5067679;28;19920;-79
2023/01/29 11:09:38;;;;;;;;;;;7.00;99.90;;;;;;5046506;28;19920;-79
2023/01/29 11:12:09;;;;;;;;;;;5.50;99.90;;;;;;5060406;28;20027;-84
2023/01/29 11:14:43;;;;;;;;;;;5.40;99.90;;;;;;5064787;28;19924;-77
2023/01/29 11:17:16;;;;;;;;;;;5.50;99.90;;;;;;5061099;28;19966;-75
2023/01/29 11:19:43;;;;;;;;;;;5.50;99.90;;;;;;5062708;28;19928;-77
2023/01/29 11:22:19;;;;;;;;;;;6.40;99.90;;;;;;5038627;28;20418;-78
2023/01/29 11:24:44;;;;;;;;;;;5.60;99.90;;;;;;5027407;28;19920;-74
2023/01/29 11:27:15;;;;;;;;;;;7.50;99.90;;;;;;5060198;28;20456;-73
2023/01/29 11:29:42;;;;;;;;;;;5.70;99.90;;;;;;5066159;28;19920;-82
2023/01/29 11:32:12;;;;;;;;;;;5.40;99.90;;;;;;5060139;28;20253;-81
2023/01/29 11:34:57;;;;;;;;;;;3.60;99.90;;;;;;5037872;28;19921;-78
2023/01/29 11:37:22;;;;;;;;;;;5.60;99.90;;;;;;5051206;28;19978;-77
2023/01/29 11:39:49;;;;;;;;;;;5.50;99.90;;;;;;5054812;28;20360;-75
2023/01/29 11:42:21;;;;;;;;;;;6.10;99.90;;;;;;5051673;28;19974;-78
2023/01/29 11:44:47;;;;;;;;;;;5.60;99.90;;;;;;5028342;28;19921;-77
2023/01/29 11:47:13;;;;;;;;;;;7.90;99.90;;;;;;5031843;28;20436;-78
2023/01/29 11:49:44;;;;;;;;;;;5.70;99.90;;;;;;5028368;28;19924;-78
2023/01/29 11:52:10;;;;;;;;;;;5.90;99.90;;;;;;5057685;28;19929;-79
2023/01/29 11:54:38;;;;;;;;;;;5.80;99.90;;;;;;5034654;28;19936;-80
2023/01/29 11:57:04;;;;;;;;;;;5.80;99.90;;;;;;5051785;28;19927;-78
2023/01/29 11:59:42;;;;;;;;;;;5.80;99.90;;;;;;5052731;28;19921;-77
2023/01/29 12:02:20;;;;;;;;;;;5.90;99.90;;;;;;5053059;28;19964;-78
2023/01/29 12:04:46;;;;;;;;;;;5.90;99.90;;;;;;5034560;28;19920;-79
2023/01/29 12:07:13;;;;;;;;;;;5.90;99.90;;;;;;5052994;28;19924;-78
2023/01/29 12:09:39;;;;;;;;;;;7.40;99.90;;;;;;5061249;28;19916;-79
2023/01/29 12:12:23;;;;;;;;;;;6.00;99.90;;;;;;5032061;28;19921;-77
2023/01/29 12:15:00;;;;;;;;;;;6.00;99.90;;;;;;5058372;28;20360;-79
2023/01/29 12:17:28;;;;;;;;;;;6.00;99.90;;;;;;5063132;28;19928;-78
2023/01/29 12:19:57;;;;;;;;;;;6.10;99.90;;;;;;5033628;28;19921;-78
2023/01/29 12:22:26;;;;;;;;;;;5.90;99.90;;;;;;5036881;28;19924;-82
2023/01/29 12:24:55;;;;;;;;;;;6.60;99.90;;;;;;5062662;28;19970;-83
2023/01/29 12:27:30;;;;;;;;;;;6.40;99.90;;;;;;5037095;28;20023;-82
2023/01/29 12:30:05;;;;;;;;;;;6.10;99.90;;;;;;5045885;28;19935;-77
2023/01/29 12:32:38;;;;;;;;;;;6.10;99.90;;;;;;5025434;28;19936;-86
2023/01/29 12:35:14;;;;;;;;;;;6.10;99.90;;;;;;5060846;28;19920;-81
2023/01/29 12:37:47;;;;;;;;;;;6.00;99.90;;;;;;5032696;28;19936;-86
2023/01/29 12:40:14;;;;;;;;;;;6.60;99.90;;;;;;5037985;28;19925;-86
2023/01/29 12:42:42;;;;;;;;;;;6.10;99.90;;;;;;5056024;28;19921;-82
2023/01/29 12:45:09;;;;;;;;;;;6.70;99.90;;;;;;5041507;28;20326;-85
2023/01/29 12:47:43;;;;;;;;;;;6.10;99.90;;;;;;5028131;28;20391;-81
2023/01/29 12:50:16;;;;;;;;;;;6.10;99.90;;;;;;5058284;28;19920;-84
2023/01/29 12:52:41;;;;;;;;;;;6.50;99.90;;;;;;5060694;28;19928;-84
2023/01/29 12:55:19;;;;;;;;;;;7.60;99.90;;;;;;5035249;28;19920;-82
2023/01/29 12:57:45;;;;;;;;;;;6.30;99.90;;;;;;5061593;28;20358;-82
2023/01/29 13:00:15;;;;;;;;;;;6.80;99.90;;;;;;5056473;28;19963;-85
2023/01/29 13:02:48;;;;;;;;;;;9.30;99.90;;;;;;5037210;28;19927;-86
2023/01/29 13:05:17;;;;;;;;;;;6.60;99.90;;;;;;5060503;28;19968;-78
2023/01/29 13:07:46;;;;;;;;;;;6.60;99.90;;;;;;5058440;28;19924;-80
2023/01/29 13:10:13;;;;;;;;;;;7.70;99.90;;;;;;5050991;28;19932;-80
2023/01/29 13:12:43;;;;;;;;;;;6.70;99.90;;;;;;5033013;28;19927;-80
2023/01/29 13:15:19;;;;;;;;;;;6.70;99.90;;;;;;5032491;28;19921;-82
2023/01/29 13:17:46;;;;;;;;;;;6.80;99.90;;;;;;5058093;28;20427;-78
2023/01/29 13:20:16;;;;;;;;;;;7.10;99.90;;;;;;5056450;28;19971;-77
2023/01/29 13:22:42;;;;;;;;;;;6.70;99.90;;;;;;5062936;28;19936;-77
2023/01/29 13:25:14;;;;;;;;;;;7.10;99.90;;;;;;5026811;28;20300;-80
2023/01/29 13:27:41;;;;;;;;;;;6.60;99.90;;;;;;5036709;28;20027;-85
2023/01/29 13:30:07;;;;;;;;;;;9.20;99.90;;;;;;5033252;28;19921;-86
2023/01/29 13:32:35;;;;;;;;;;;6.60;99.90;;;;;;5059853;28;20323;-85
2023/01/29 13:35:03;;;;;;;;;;;6.50;99.90;;;;;;5032946;28;19925;-77
2023/01/29 13:37:28;;;;;;;;;;;8.30;99.90;;;;;;5036894;28;19920;-82
2023/01/29 13:39:55;;;;;;;;;;;6.40;99.90;;;;;;5034153;28;19967;-80
2023/01/29 13:42:21;;;;;;;;;;;6.80;99.90;;;;;;5051054;28;19928;-83
2023/01/29 13:44:51;;;;;;;;;;;8.90;99.90;;;;;;5051396;28;19920;-76
2023/01/29 13:47:36;;;;;;;;;;;6.20;99.90;;;;;;5043109;28;19928;-77
2023/01/29 13:50:05;;;;;;;;;;;6.30;99.90;;;;;;5041184;28;20011;-80
2023/01/29 13:52:43;;;;;;;;;;;7.10;99.90;;;;;;5024682;28;20012;-82
2023/01/29 13:55:20;;;;;;;;;;;6.30;99.90;;;;;;5021213;28;19927;-87
2023/01/29 13:57:45;;;;;;;;;;;6.30;99.90;;;;;;5023025;28;20341;-88
2023/01/29 14:00:20;;;;;;;;;;;6.70;99.90;;;;;;5026538;28;20035;-90
2023/01/29 14:03:10;;;;;;;;;;;6.20;99.90;;;;;;5026042;28;20017;-87
2023/01/29 14:05:43;;;;;;;;;;;7.50;99.90;;;;;;5032744;28;19970;-79
2023/01/29 14:08:09;;;;;;;;;;;6.30;99.90;;;;;;5020356;28;19921;-81
2023/01/29 14:10:36;;;;;;;;;;;6.80;99.90;;;;;;5046855;28;19921;-84
2023/01/29 14:13:20;;;;;;;;;;;6.90;99.90;;;;;;5021568;28;19921;-80
2023/01/29 14:16:05;;;;;;;;;;;6.40;99.90;;;;;;5050949;28;19927;-80
2023/01/29 14:18:32;;;;;;;;;;;6.50;99.90;;;;;;5022173;28;19936;-80
2023/01/29 14:21:03;;;;;;;;;;;7.70;99.90;;;;;;5040289;28;19967;-80
2023/01/29 14:23:29;;;;;;;;;;;7.30;99.90;;;;;;5039234;28;19968;-80
2023/01/29 14:25:55;;;;;;;;;;;6.30;99.90;;;;;;5041051;28;19960;-79
2023/01/29 14:28:25;;;;;;;;;;;7.60;99.90;;;;;;5038590;28;19968;-88
2023/01/29 14:30:51;;;;;;;;;;;6.20;99.90;;;;;;5027374;28;19921;-82
2023/01/29 14:33:25;;;;;;;;;;;8.30;99.90;;;;;;5039900;28;20372;-92
2023/01/29 14:35:51;;;;;;;;;;;6.20;99.90;;;;;;5025380;28;19921;-80
2023/01/29 14:38:17;;;;;;;;;;;7.50;99.90;;;;;;5046560;28;20372;-80
2023/01/29 14:40:45;;;;;;;;;;;8.30;99.90;;;;;;5044521;28;19924;-77
2023/01/29 14:43:21;;;;;;;;;;;6.20;99.90;;;;;;5047836;28;20293;-81
2023/01/29 14:45:47;;;;;;;;;;;6.20;99.90;;;;;;5053031;28;20395;-84
2023/01/29 14:48:19;;;;;;;;;;;7.90;99.90;;;;;;5054883;28;20019;-88
2023/01/29 14:50:46;;;;;;;;;;;6.20;99.90;;;;;;5032087;28;19924;-91
2023/01/29 14:53:11;;;;;;;;;;;7.40;99.90;;;;;;5053942;28;19931;-80
2023/01/29 14:55:45;;;;;;;;;;;6.20;99.90;;;;;;5059266;28;19920;-78
2023/01/29 14:58:13;;;;;;;;;;;6.20;99.90;;;;;;5049341;28;19921;-82
2023/01/29 15:00:42;;;;;;;;;;;6.40;99.90;;;;;;5030315;28;20006;-78
2023/01/29 15:03:13;;;;;;;;;;;6.10;99.90;;;;;;5060323;28;20280;-89
2023/01/29 15:05:40;;;;;;;;;;;6.20;99.90;;;;;;5028331;28;19921;-87
2023/01/29 15:08:08;;;;;;;;;;;7.50;99.90;;;;;;5033374;28;19933;-78
2023/01/29 15:10:42;;;;;;;;;;;6.20;99.90;;;;;;5030529;28;19928;-77
2023/01/29 15:13:46;;;;;;;;;;;6.20;99.90;;;;;;5023974;28;19974;-82